Airfield :
LOGIN :

Register | Disclaimer

   EN    FR    IT 

 










Legend :    VFR   Marginal VFR   IFR   Intensive IFR   Very Intensive IFR
Visi :
Ceiling :
>= 8 km
>= 3000ft
5 to 8 km
1000 to 3000 ft
1500m to 5 km
500 to 1000 ft
800 to 1500m
200 to 500 ft
< 800m
< 200 ft
Symbols :   Thunderstorms  Fog  Heavy snow  Heavy precipitations  Wind > 20 kt
SIGMETs :     Misc.  Thunderstorms  Icing  Turbulence  Mountain Waves  Volcanic Ashes







- Airport Elevation : 74 ft
- IATA code : EIN


EHEH - Eindhoven

CURRENT METAR :
  • 212225Z AUTO VRB01KT 9999 BKN160 10/10 Q1019 BLU

EXPIRED METARs :
  • 212155Z AUTO 00000KT 9999 BKN160 10/10 Q1019 BLU
  • 212125Z AUTO 00000KT 9999 NCD 10/10 Q1019 BLU VRB03KT CAVOK
  • 212055Z AUTO 00000KT 9999 FEW120 10/10 Q1019 BLU VRB03KT CAVOK
  • 212025Z AUTO VRB01KT 9999 FEW130 SCT180 11/10 Q1019 BLU VRB03KT CAVOK
  • 211955Z AUTO VRB01KT 9999 FEW190 11/10 Q1019 BLU VRB03KT CAVOK

TAF TAF EHEH
Valid from the 21 at 18:00 until the 23 at 00:00 UTC


211701Z 2118/2224 16005KT CAVOK
PROB30 2204/2207 4500 BR MIFG
PROB30
TEMPO 2214/2218 SCT020CB BKN030
No reported NOTAMs for that airfield.



MET'MAP, your aeronautical weather chart ! - Copyright ORBIFLY December 2007 - Disclaimer

ORBIFLY MET'MAP TEAM :

Programming & Development : Alexandra Zaïnal
Concept & Development : Baudouin d'Aumeries
Co-Development & Prog : Marc-Olivier Méhu
Technical & hardware support : Manuel Goepfert

Contact : metmap@orbifly.com




SOURCES & CREDITS :

   NOAA